Time;durP1;ratioP1;P1;durP2;ratioP2;P2;SDS_P1;SDS_P2;PMS_P1;PMS_P2;Temp;Humidity;BMP_temperature;BMP_pressure;BME280_temperature;BME280_humidity;BME280_pressure;Samples;Min_cycle;Max_cycle;Signal;HPM_P1;HPM_P2
2022/01/24 00:01:09;;;;;;;9.40;6.68;;;5.50;99.90;;;;;;5020982;28;20125;-71
2022/01/24 00:03:34;;;;;;;8.75;6.75;;;5.60;99.90;;;;;;5021524;28;20133;-70
2022/01/24 00:06:00;;;;;;;8.18;6.47;;;5.50;99.90;;;;;;5021823;28;20134;-69
2022/01/24 00:08:26;;;;;;;7.47;6.20;;;5.60;99.90;;;;;;5021030;28;20046;-69
2022/01/24 00:10:53;;;;;;;8.80;6.50;;;5.60;99.90;;;;;;5020827;28;20042;-69
2022/01/24 00:26:48;;;;;;;7.88;6.50;;;5.50;99.90;;;;;;5021276;28;20463;-69
2022/01/24 00:29:22;;;;;;;8.82;6.55;;;5.50;99.90;;;;;;5021372;28;20159;-69
2022/01/24 00:31:48;;;;;;;7.70;6.03;;;5.50;99.90;;;;;;5020909;28;20451;-69
2022/01/24 00:34:16;;;;;;;7.97;5.75;;;5.50;99.90;;;;;;5021442;28;20141;-70
2022/01/24 00:36:42;;;;;;;9.23;6.65;;;5.40;99.90;;;;;;5021515;28;20161;-69
2022/01/24 00:39:08;;;;;;;8.15;6.47;;;5.50;99.90;;;;;;5003465;28;20049;-70
2022/01/24 00:41:47;;;;;;;7.93;6.03;;;5.50;99.90;;;;;;5021439;28;20462;-70
2022/01/24 00:47:01;;;;;;;9.55;6.63;;;5.40;99.90;;;;;;5021409;28;20060;-69
2022/01/24 00:54:56;;;;;;;8.07;6.20;;;5.40;99.90;;;;;;5021496;28;20057;-70
2022/01/24 00:57:22;;;;;;;9.90;6.40;;;5.40;99.90;;;;;;5021129;28;20058;-71
2022/01/24 00:59:48;;;;;;;11.70;7.03;;;5.40;99.90;;;;;;5021239;28;20363;-72
2022/01/24 01:02:15;;;;;;;9.10;7.10;;;5.40;99.90;;;;;;5020450;28;20049;-68
2022/01/24 01:05:02;;;;;;;10.10;7.38;;;5.40;99.90;;;;;;4987778;28;20136;-70
2022/01/24 01:18:25;;;;;;;9.95;7.43;;;5.70;99.90;;;;;;5017959;28;20050;-71
2022/01/24 01:23:19;;;;;;;9.07;7.07;;;5.40;99.90;;;;;;5000640;28;20533;-71
2022/01/24 01:25:46;;;;;;;10.38;7.63;;;5.40;99.90;;;;;;5017991;28;20050;-72
2022/01/24 01:28:13;;;;;;;9.80;7.30;;;5.30;99.90;;;;;;5017574;28;20065;-73
2022/01/24 01:30:44;;;;;;;10.13;7.55;;;5.40;99.90;;;;;;5017996;28;20060;-71
2022/01/24 01:33:19;;;;;;;9.93;7.20;;;5.40;99.90;;;;;;5017930;28;20125;-72
2022/01/24 01:57:00;;;;;;;9.75;7.07;;;5.30;99.90;;;;;;5017063;28;20092;-71
2022/01/24 01:59:26;;;;;;;9.68;7.13;;;5.30;99.90;;;;;;5017339;28;20046;-71
2022/01/24 02:01:51;;;;;;;11.57;7.72;;;5.30;99.90;;;;;;4999818;28;20054;-70
2022/01/24 02:04:17;;;;;;;8.68;6.80;;;5.30;99.90;;;;;;5017336;28;20046;-72
2022/01/24 02:06:43;;;;;;;9.98;7.75;;;5.30;99.90;;;;;;5017191;28;20049;-72
2022/01/24 02:09:10;;;;;;;9.70;7.13;;;5.30;99.90;;;;;;5016211;28;20344;-73
2022/01/24 02:11:36;;;;;;;9.93;7.00;;;5.30;99.90;;;;;;5016516;28;20439;-71
2022/01/24 02:14:06;;;;;;;9.77;7.20;;;5.20;99.90;;;;;;5016950;28;20064;-70
2022/01/24 02:25:01;;;;;;;10.73;7.72;;;5.20;99.90;;;;;;5015998;28;19921;-71
2022/01/24 02:27:40;;;;;;;10.18;8.38;;;5.20;99.90;;;;;;5016584;28;20066;-72
2022/01/24 02:30:25;;;;;;;12.75;7.63;;;5.20;99.90;;;;;;5016359;28;20056;-72
2022/01/24 02:32:51;;;;;;;13.13;8.57;;;5.20;99.90;;;;;;5016824;28;20059;-72
2022/01/24 02:35:17;;;;;;;11.25;8.45;;;5.20;99.90;;;;;;5016585;28;20346;-72
2022/01/24 02:37:42;;;;;;;13.10;9.20;;;5.20;99.90;;;;;;5015609;28;20115;-71
2022/01/24 02:40:14;;;;;;;11.50;8.68;;;5.20;99.90;;;;;;4998826;28;20049;-71
2022/01/24 02:48:27;;;;;;;11.98;8.43;;;5.10;99.90;;;;;;5016378;28;19932;-68
2022/01/24 02:53:35;;;;;;;12.20;8.03;;;5.20;99.90;;;;;;5015620;28;20072;-68
2022/01/24 02:56:02;;;;;;;11.98;9.00;;;5.20;99.90;;;;;;5016483;28;20132;-72
2022/01/24 02:58:28;;;;;;;12.57;9.23;;;5.10;99.90;;;;;;5015994;28;20053;-73
2022/01/24 03:00:55;;;;;;;12.30;8.95;;;5.20;99.90;;;;;;5016046;28;20453;-72
2022/01/24 03:03:21;;;;;;;12.85;9.25;;;5.20;99.90;;;;;;5015636;28;20132;-72
2022/01/24 03:05:46;;;;;;;13.85;9.50;;;5.10;99.90;;;;;;5015780;28;20121;-73
2022/01/24 03:08:14;;;;;;;11.68;8.75;;;5.20;99.90;;;;;;4998313;28;20050;-72
2022/01/24 03:10:44;;;;;;;12.00;8.82;;;5.20;99.90;;;;;;4998485;28;20050;-72
2022/01/24 03:13:20;;;;;;;14.43;10.25;;;5.20;99.90;;;;;;4998680;28;20057;-71
2022/01/24 03:15:50;;;;;;;12.65;9.50;;;5.10;99.90;;;;;;5015509;28;20356;-70
2022/01/24 03:18:17;;;;;;;12.40;9.18;;;5.20;99.90;;;;;;5015544;28;20123;-70
2022/01/24 03:20:43;;;;;;;13.32;9.55;;;5.10;99.90;;;;;;4998784;28;20056;-72
2022/01/24 03:23:10;;;;;;;11.75;9.05;;;5.10;99.90;;;;;;5015681;28;20046;-71
2022/01/24 03:25:36;;;;;;;15.15;9.35;;;5.10;99.90;;;;;;4998301;28;20065;-72
2022/01/24 03:28:03;;;;;;;12.18;8.43;;;5.10;99.90;;;;;;4998030;28;20050;-71
2022/01/24 03:30:29;;;;;;;16.48;9.95;;;5.10;99.90;;;;;;4998417;28;20466;-71
2022/01/24 03:32:56;;;;;;;13.00;10.20;;;5.10;99.90;;;;;;5015399;28;20060;-71
2022/01/24 03:35:22;;;;;;;14.00;10.18;;;5.10;99.90;;;;;;5015384;28;20053;-72
2022/01/24 03:37:47;;;;;;;13.38;9.75;;;5.10;99.90;;;;;;5015183;28;20048;-74
2022/01/24 03:40:13;;;;;;;12.93;9.48;;;5.10;99.90;;;;;;5015309;28;20374;-72
2022/01/24 03:42:39;;;;;;;13.40;9.40;;;5.10;99.90;;;;;;5015413;28;20458;-73
2022/01/24 03:45:07;;;;;;;14.50;9.93;;;5.10;99.90;;;;;;5014827;28;20097;-71
2022/01/24 03:50:03;;;;;;;14.02;10.15;;;5.10;99.90;;;;;;5015291;28;20078;-72
2022/01/24 03:52:30;;;;;;;13.77;10.07;;;5.10;99.90;;;;;;5015006;28;20124;-72
2022/01/24 03:54:57;;;;;;;14.57;10.40;;;5.10;99.90;;;;;;5015317;28;20049;-72
2022/01/24 03:57:24;;;;;;;15.27;10.18;;;5.10;99.90;;;;;;5014975;28;20045;-72
2022/01/24 03:59:50;;;;;;;13.98;10.02;;;5.10;99.90;;;;;;5015050;28;20076;-71
2022/01/24 04:02:18;;;;;;;14.52;9.80;;;5.10;99.90;;;;;;5014778;28;20057;-71
2022/01/24 04:04:43;;;;;;;13.63;10.35;;;5.10;99.90;;;;;;5015008;28;20366;-69
2022/01/24 04:07:09;;;;;;;14.80;10.80;;;5.10;99.90;;;;;;5015105;28;20045;-69
2022/01/24 04:09:36;;;;;;;16.23;11.13;;;5.10;99.90;;;;;;5015125;28;20042;-68
2022/01/24 04:12:02;;;;;;;15.93;11.07;;;5.30;99.90;;;;;;5014922;28;20069;-69
2022/01/24 04:22:11;;;;;;;17.45;12.80;;;5.10;99.90;;;;;;5015268;28;20049;-71
2022/01/24 04:24:37;;;;;;;17.70;12.40;;;5.10;99.90;;;;;;5014999;28;20046;-70
2022/01/24 04:27:03;;;;;;;15.80;11.93;;;5.00;99.90;;;;;;5015118;28;20049;-70
2022/01/24 04:29:29;;;;;;;19.23;11.65;;;5.00;99.90;;;;;;5015308;28;20470;-69
2022/01/24 04:31:55;;;;;;;16.90;12.13;;;5.00;99.90;;;;;;5015106;28;20132;-69
2022/01/24 04:34:21;;;;;;;17.23;12.43;;;5.00;99.90;;;;;;5014987;28;20060;-70
2022/01/24 04:36:47;;;;;;;17.42;11.68;;;5.00;99.90;;;;;;5014663;28;20102;-68
2022/01/24 04:39:14;;;;;;;18.42;12.48;;;5.00;99.90;;;;;;5014453;28;20038;-69
2022/01/24 04:41:43;;;;;;;20.25;13.85;;;5.00;99.90;;;;;;5014721;28;20053;-68
2022/01/24 04:44:27;;;;;;;18.63;13.23;;;5.00;99.90;;;;;;5014589;28;20038;-70
2022/01/24 04:47:00;;;;;;;22.35;14.23;;;5.00;99.90;;;;;;5015530;28;20052;-69
2022/01/24 04:54:45;;;;;;;20.60;14.65;;;5.00;99.90;;;;;;5018708;28;20200;-69
2022/01/24 04:57:22;;;;;;;21.33;15.23;;;5.00;99.90;;;;;;5018388;28;20463;-70
2022/01/24 04:59:50;;;;;;;19.92;14.73;;;5.00;99.90;;;;;;5001421;28;20124;-69
2022/01/24 05:02:17;;;;;;;19.80;14.55;;;5.00;99.90;;;;;;5018135;28;20188;-68
2022/01/24 05:04:43;;;;;;;20.83;14.25;;;5.00;99.90;;;;;;5000904;28;20050;-69
2022/01/24 05:07:09;;;;;;;20.98;15.00;;;5.00;99.90;;;;;;5018051;28;20056;-69
2022/01/24 05:09:46;;;;;;;23.45;15.02;;;5.00;99.90;;;;;;5018232;28;20473;-71
2022/01/24 05:12:22;;;;;;;22.35;14.90;;;5.00;99.90;;;;;;5018293;28;20113;-73
2022/01/24 05:25:45;;;;;;;25.25;15.15;;;5.00;99.90;;;;;;5018128;28;20123;-73
2022/01/24 05:28:11;;;;;;;23.30;15.55;;;5.00;99.90;;;;;;5017601;28;20050;-72
2022/01/24 05:30:36;;;;;;;21.20;15.65;;;4.90;99.90;;;;;;5017655;28;20061;-70
2022/01/24 05:33:02;;;;;;;21.73;15.80;;;5.00;99.90;;;;;;5017678;28;20054;-71
2022/01/24 05:35:27;;;;;;;23.05;15.63;;;5.00;99.90;;;;;;5017726;28;20050;-70
2022/01/24 05:37:53;;;;;;;22.52;15.48;;;4.90;99.90;;;;;;5000085;28;20352;-72
2022/01/24 05:40:19;;;;;;;24.63;15.85;;;4.90;99.90;;;;;;5017811;28;20340;-72
2022/01/24 05:42:44;;;;;;;21.88;15.32;;;4.90;99.90;;;;;;5017670;28;20469;-72
2022/01/24 05:45:10;;;;;;;21.45;15.38;;;4.90;99.90;;;;;;5017305;28;20060;-73
2022/01/24 05:47:35;;;;;;;21.60;15.57;;;5.00;99.90;;;;;;5017570;28;20069;-72
2022/01/24 05:50:02;;;;;;;24.92;16.23;;;5.00;99.90;;;;;;5016973;28;20065;-70
2022/01/24 05:52:27;;;;;;;20.73;15.05;;;4.90;99.90;;;;;;5016949;28;20061;-74
2022/01/24 05:54:53;;;;;;;25.08;14.82;;;5.00;99.90;;;;;;5017033;28;20065;-73
2022/01/24 05:57:18;;;;;;;21.42;14.40;;;5.00;99.90;;;;;;4999333;28;20370;-71
2022/01/24 05:59:44;;;;;;;21.35;14.25;;;5.00;99.90;;;;;;5000276;28;20092;-72
2022/01/24 06:02:09;;;;;;;18.52;14.18;;;5.00;99.90;;;;;;5017264;28;20046;-71
2022/01/24 06:04:35;;;;;;;19.90;13.85;;;4.90;99.90;;;;;;5017031;28;20454;-71
2022/01/24 06:07:01;;;;;;;22.10;14.48;;;4.90;99.90;;;;;;5016418;28;20038;-71
2022/01/24 06:09:26;;;;;;;19.73;13.32;;;4.90;99.90;;;;;;5017249;28;20050;-72
2022/01/24 06:11:52;;;;;;;21.48;14.38;;;4.90;99.90;;;;;;5016961;28;20586;-71
2022/01/24 06:14:18;;;;;;;20.67;13.48;;;5.00;99.90;;;;;;5016753;28;20045;-72
2022/01/24 06:16:44;;;;;;;18.80;13.07;;;4.90;99.90;;;;;;5016764;28;20054;-71
2022/01/24 06:19:09;;;;;;;18.98;13.43;;;5.00;99.90;;;;;;5016645;28;20397;-71
2022/01/24 06:21:35;;;;;;;18.75;13.95;;;5.00;99.90;;;;;;5016576;28;20121;-70
2022/01/24 06:24:02;;;;;;;22.08;14.50;;;5.00;99.90;;;;;;5016969;28;20054;-72
2022/01/24 06:26:27;;;;;;;18.05;13.10;;;4.90;99.90;;;;;;5016644;28;20100;-71
2022/01/24 06:28:53;;;;;;;21.73;14.27;;;5.00;99.90;;;;;;4966062;28;20057;-73
2022/01/24 06:31:19;;;;;;;18.52;13.15;;;4.90;99.90;;;;;;5016883;28;20042;-72
2022/01/24 06:33:45;;;;;;;18.88;13.63;;;5.00;99.90;;;;;;5016661;28;20046;-70
2022/01/24 06:36:10;;;;;;;22.42;15.35;;;5.00;99.90;;;;;;5015743;28;20053;-72
2022/01/24 06:38:36;;;;;;;23.23;14.70;;;5.00;99.90;;;;;;5016613;28;20050;-70
2022/01/24 06:41:01;;;;;;;23.65;15.57;;;5.00;99.90;;;;;;5016191;28;20046;-71
2022/01/24 06:43:27;;;;;;;27.75;18.60;;;4.90;99.90;;;;;;5016627;28;20081;-72
2022/01/24 06:45:53;;;;;;;27.55;17.58;;;4.90;99.90;;;;;;5016250;28;20042;-71
2022/01/24 06:48:18;;;;;;;21.35;16.25;;;5.00;99.90;;;;;;5015957;28;20038;-74
2022/01/24 06:50:44;;;;;;;22.33;16.40;;;5.00;99.90;;;;;;5015936;28;20041;-71
2022/01/24 06:53:10;;;;;;;21.95;15.07;;;4.90;99.90;;;;;;5015616;28;20092;-73
2022/01/24 06:55:35;;;;;;;23.52;15.93;;;5.00;99.90;;;;;;5016128;28;20050;-72
2022/01/24 06:58:01;;;;;;;19.90;14.68;;;4.90;99.90;;;;;;5016049;28;20462;-71
2022/01/24 07:00:27;;;;;;;20.13;14.90;;;4.90;99.90;;;;;;5016201;28;20042;-73
2022/01/24 07:02:54;;;;;;;18.92;13.68;;;4.90;99.90;;;;;;5016334;28;20132;-71
2022/01/24 07:05:19;;;;;;;20.67;14.68;;;5.00;99.90;;;;;;5015851;28;20612;-71
2022/01/24 07:07:45;;;;;;;17.90;13.57;;;4.90;99.90;;;;;;5015002;28;20069;-71
2022/01/24 07:10:10;;;;;;;19.10;14.30;;;4.90;99.90;;;;;;5015488;28;20354;-72
2022/01/24 07:12:36;;;;;;;19.63;14.35;;;4.90;99.90;;;;;;5015869;28;20132;-71
2022/01/24 07:15:08;;;;;;;19.15;13.98;;;4.90;99.90;;;;;;5015841;28;20046;-74
2022/01/24 07:17:58;;;;;;;18.73;13.82;;;4.90;99.90;;;;;;5015664;28;20442;-71
2022/01/24 07:20:19;;;;;;;18.73;13.85;;;4.90;99.90;;;;;;5015623;28;20455;-72
2022/01/24 07:22:44;;;;;;;19.70;14.48;;;4.90;99.90;;;;;;5015848;28;20104;-73
2022/01/24 07:25:10;;;;;;;20.50;14.90;;;4.90;99.90;;;;;;5015621;28;20062;-72
2022/01/24 07:27:36;;;;;;;21.15;15.02;;;4.90;99.90;;;;;;5015661;28;20435;-71
2022/01/24 07:30:03;;;;;;;19.20;14.15;;;4.90;99.90;;;;;;5015483;28;20129;-74
2022/01/24 07:32:30;;;;;;;20.83;14.10;;;4.90;99.90;;;;;;5015263;28;20049;-71
2022/01/24 07:34:55;;;;;;;20.08;14.32;;;4.90;99.90;;;;;;5015340;28;20038;-72
2022/01/24 07:37:22;;;;;;;19.63;14.32;;;4.90;99.90;;;;;;5014952;28;20433;-71
2022/01/24 07:39:49;;;;;;;21.15;14.25;;;4.90;99.90;;;;;;5015377;28;20328;-72
2022/01/24 07:42:17;;;;;;;23.88;14.48;;;4.90;99.90;;;;;;5015340;28;20517;-72
2022/01/24 07:44:44;;;;;;;22.80;15.70;;;4.90;99.90;;;;;;5015326;28;20042;-74
2022/01/24 07:47:10;;;;;;;25.65;15.52;;;4.90;99.90;;;;;;5015099;28;20038;-72
2022/01/24 07:49:36;;;;;;;23.75;15.68;;;4.90;99.90;;;;;;5015693;28;20061;-71
2022/01/24 07:52:02;;;;;;;23.67;16.55;;;4.90;99.90;;;;;;5014547;28;20052;-74
2022/01/24 07:54:28;;;;;;;22.23;15.82;;;4.90;99.90;;;;;;5015224;28;20125;-71
2022/01/24 07:56:53;;;;;;;23.58;16.42;;;5.00;99.90;;;;;;5015296;28;20147;-71
2022/01/24 07:59:20;;;;;;;23.30;16.20;;;5.00;99.90;;;;;;5014964;28;20121;-72
2022/01/24 08:01:46;;;;;;;24.30;16.80;;;5.00;99.90;;;;;;5015349;28;20054;-71
2022/01/24 08:04:12;;;;;;;25.20;16.15;;;5.00;99.90;;;;;;4998404;28;20077;-71
2022/01/24 08:06:38;;;;;;;23.20;15.57;;;5.00;99.90;;;;;;5014687;28;20045;-72
2022/01/24 08:09:05;;;;;;;23.27;16.15;;;5.00;99.90;;;;;;5015129;28;20049;-74
2022/01/24 08:11:31;;;;;;;22.52;15.77;;;5.00;99.90;;;;;;5014926;28;20104;-71
2022/01/24 08:13:57;;;;;;;24.50;16.02;;;4.90;99.90;;;;;;5014669;28;20042;-72
2022/01/24 08:16:23;;;;;;;25.85;17.17;;;5.00;99.90;;;;;;5014287;28;20042;-71
2022/01/24 08:18:51;;;;;;;24.48;17.23;;;5.00;99.90;;;;;;5014661;28;20054;-71
2022/01/24 08:21:18;;;;;;;25.27;16.95;;;5.00;99.90;;;;;;5017285;28;20379;-72
2022/01/24 08:23:45;;;;;;;28.35;18.98;;;5.00;99.90;;;;;;5018821;28;20034;-72
2022/01/24 08:26:10;;;;;;;25.48;17.58;;;5.00;99.90;;;;;;5018942;28;20041;-74
2022/01/24 08:28:36;;;;;;;29.02;18.25;;;5.00;99.90;;;;;;5018717;28;20125;-72
2022/01/24 08:31:01;;;;;;;28.40;19.65;;;5.00;99.90;;;;;;5018316;28;20045;-70
2022/01/24 08:33:27;;;;;;;27.13;19.05;;;5.00;99.90;;;;;;5018683;28;20042;-73
2022/01/24 08:35:53;;;;;;;28.50;18.77;;;5.10;99.90;;;;;;5018911;28;20045;-71
2022/01/24 08:38:21;;;;;;;31.25;20.60;;;5.10;99.90;;;;;;5018503;28;20049;-73
2022/01/24 08:40:49;;;;;;;28.20;19.98;;;5.10;99.90;;;;;;5018765;28;20057;-73
2022/01/24 08:43:23;;;;;;;29.67;20.75;;;5.10;99.90;;;;;;5017262;28;20061;-72
2022/01/24 08:45:50;;;;;;;;;;;5.10;99.90;;;;;;5018667;28;20058;-71
2022/01/24 08:48:21;;;;;;;30.58;21.38;;;5.10;99.90;;;;;;5018372;28;19972;-72
2022/01/24 08:50:50;;;;;;;32.25;22.15;;;5.10;99.90;;;;;;5018588;28;20046;-72
2022/01/24 08:53:15;;;;;;;33.40;21.17;;;5.10;99.90;;;;;;5018255;28;20060;-72
2022/01/24 08:55:41;;;;;;;29.02;18.65;;;5.10;99.90;;;;;;5018182;28;20053;-72
2022/01/24 08:58:13;;;;;;;26.85;18.10;;;5.20;99.90;;;;;;5018027;28;20078;-72
2022/01/24 09:00:39;;;;;;;29.02;18.40;;;5.20;99.90;;;;;;5018316;28;20124;-71
2022/01/24 09:03:05;;;;;;;27.60;17.80;;;5.20;99.90;;;;;;5017844;28;20449;-71
2022/01/24 09:05:34;;;;;;;31.55;18.55;;;5.20;99.90;;;;;;5018180;28;20128;-71
2022/01/24 09:08:01;;;;;;;30.70;18.60;;;5.20;99.90;;;;;;5017800;28;20042;-71
2022/01/24 09:10:26;;;;;;;32.70;19.48;;;5.20;99.90;;;;;;5018033;28;20137;-72
2022/01/24 09:12:52;;;;;;;28.08;18.52;;;5.20;99.90;;;;;;5017431;28;20413;-72
2022/01/24 09:15:18;;;;;;;32.70;20.27;;;5.30;99.90;;;;;;5018127;28;20049;-72
2022/01/24 09:17:44;;;;;;;32.92;20.45;;;5.20;99.90;;;;;;5017698;28;20046;-72
2022/01/24 09:20:10;;;;;;;28.13;18.70;;;5.30;99.90;;;;;;5018032;28;20447;-74
2022/01/24 09:22:36;;;;;;;33.47;20.90;;;5.30;99.90;;;;;;5018079;28;20041;-72
2022/01/24 09:25:03;;;;;;;36.25;22.38;;;5.30;99.90;;;;;;5017669;28;20474;-71
2022/01/24 09:27:30;;;;;;;34.70;21.20;;;5.30;99.90;;;;;;5017552;28;20046;-71
2022/01/24 09:29:56;;;;;;;36.03;23.35;;;5.30;99.90;;;;;;5017440;28;20056;-72
2022/01/24 09:32:21;;;;;;;38.55;22.00;;;5.30;99.90;;;;;;5016662;28;20510;-71
2022/01/24 09:34:47;;;;;;;37.47;22.70;;;5.30;99.90;;;;;;5017819;28;20037;-72
2022/01/24 09:37:13;;;;;;;41.03;23.77;;;5.30;99.90;;;;;;5017564;28;20068;-71
2022/01/24 09:39:38;;;;;;;43.35;25.10;;;5.40;99.90;;;;;;5017262;28;20049;-72
2022/01/24 09:42:05;;;;;;;44.70;25.55;;;5.40;99.90;;;;;;5016940;28;20115;-73
2022/01/24 09:44:33;;;;;;;40.75;24.23;;;5.40;99.90;;;;;;5017075;28;20394;-73
2022/01/24 09:46:58;;;;;;;45.72;26.25;;;5.40;99.90;;;;;;5017014;28;20056;-71
2022/01/24 09:49:24;;;;;;;44.58;25.58;;;5.40;99.90;;;;;;5017592;28;20038;-71
2022/01/24 09:51:50;;;;;;;47.08;27.05;;;5.40;99.90;;;;;;5017523;28;20046;-72
2022/01/24 09:54:16;;;;;;;45.17;25.25;;;5.50;99.90;;;;;;5017016;28;20054;-70
2022/01/24 09:56:41;;;;;;;48.40;27.55;;;5.40;99.90;;;;;;5016995;28;20052;-72
2022/01/24 09:59:07;;;;;;;49.28;27.35;;;5.50;99.90;;;;;;5016932;28;20417;-70
2022/01/24 10:01:33;;;;;;;49.58;27.60;;;5.50;99.90;;;;;;5017016;28;20057;-73
2022/01/24 10:04:10;;;;;;;52.80;29.40;;;5.50;99.90;;;;;;5017153;28;20090;-72
2022/01/24 10:07:12;;;;;;;56.03;30.33;;;5.50;99.90;;;;;;5016852;28;20057;-70
2022/01/24 10:09:42;;;;;;;49.10;29.38;;;5.60;99.90;;;;;;5016373;28;20046;-72
2022/01/24 10:18:04;;;;;;;59.95;31.95;;;5.60;99.90;;;;;;5016436;28;20046;-72
2022/01/24 10:20:34;;;;;;;64.35;34.38;;;5.60;99.90;;;;;;4999223;28;20466;-71
2022/01/24 10:23:17;;;;;;;66.10;36.33;;;5.70;99.90;;;;;;5016773;28;20072;-73
2022/01/24 10:25:59;;;;;;;;;;;5.70;99.90;;;;;;5016601;28;20465;-71
2022/01/24 10:28:31;;;;;;;66.60;36.90;;;5.70;99.90;;;;;;4999758;28;20019;-71
2022/01/24 10:31:17;;;;;;;67.40;37.42;;;5.70;99.90;;;;;;5016079;28;20042;-71
2022/01/24 10:33:56;;;;;;;69.45;38.53;;;5.80;99.90;;;;;;5016589;28;20594;-72
2022/01/24 10:36:39;;;;;;;71.05;39.95;;;5.80;99.90;;;;;;5016450;28;20511;-72
2022/01/24 10:39:33;;;;;;;69.70;40.17;;;5.90;99.90;;;;;;5016276;28;20062;-73
2022/01/24 10:45:12;;;;;;;73.57;42.30;;;5.90;99.90;;;;;;5015360;28;20050;-72
2022/01/24 10:47:45;;;;;;;72.20;40.88;;;5.90;99.90;;;;;;5016322;28;20042;-71
2022/01/24 10:50:28;;;;;;;72.20;41.45;;;6.00;99.90;;;;;;5016314;28;20136;-72
2022/01/24 10:52:55;;;;;;;80.07;43.67;;;6.00;99.90;;;;;;5016337;28;20374;-72
2022/01/24 10:55:27;;;;;;;79.38;43.15;;;6.00;99.90;;;;;;5015988;28;20370;-72
2022/01/24 10:58:05;;;;;;;76.00;42.80;;;6.00;99.90;;;;;;4999081;28;20370;-72
2022/01/24 11:00:31;;;;;;;76.10;41.30;;;6.00;99.90;;;;;;4998907;28;20058;-72
2022/01/24 11:02:59;;;;;;;72.85;43.63;;;6.00;99.90;;;;;;5015835;28;20100;-70
2022/01/24 11:05:45;;;;;;;72.18;43.08;;;6.00;99.90;;;;;;5015880;28;20046;-72
2022/01/24 11:08:16;;;;;;;71.22;43.50;;;6.00;99.90;;;;;;5015893;28;20049;-71
2022/01/24 11:10:46;;;;;;;73.85;43.75;;;6.10;99.90;;;;;;5015725;28;20132;-72
2022/01/24 11:13:13;;;;;;;77.55;43.95;;;6.10;99.90;;;;;;5015648;28;20077;-71
2022/01/24 11:15:46;;;;;;;76.40;44.25;;;6.10;99.90;;;;;;5015003;28;20064;-71
2022/01/24 11:18:15;;;;;;;76.93;42.85;;;6.10;99.90;;;;;;5015538;28;20073;-71
2022/01/24 11:20:45;;;;;;;75.88;45.40;;;6.10;99.90;;;;;;5015756;28;20060;-71
2022/01/24 11:23:11;;;;;;;76.18;44.47;;;6.10;99.90;;;;;;5015588;28;20191;-70
2022/01/24 11:25:43;;;;;;;76.60;43.60;;;6.10;99.90;;;;;;4998247;28;20097;-70
2022/01/24 11:28:09;;;;;;;74.80;43.60;;;6.10;99.90;;;;;;5015462;28;20081;-70
2022/01/24 11:31:01;;;;;;;70.85;42.78;;;6.10;99.90;;;;;;5015336;28;20053;-71
2022/01/24 11:33:37;;;;;;;74.20;42.78;;;6.20;99.90;;;;;;5015632;28;20053;-71
2022/01/24 11:36:05;;;;;;;70.82;42.80;;;6.20;99.90;;;;;;5015364;28;20068;-71
2022/01/24 11:38:35;;;;;;;71.50;43.63;;;6.10;99.90;;;;;;4997692;28;20112;-71
2022/01/24 11:41:06;;;;;;;69.25;41.15;;;6.20;99.90;;;;;;5015432;28;20068;-73
2022/01/24 11:43:35;;;;;;;76.93;43.40;;;6.20;99.90;;;;;;5015285;28;20042;-71
2022/01/24 11:46:08;;;;;;;72.18;41.20;;;6.20;99.90;;;;;;5015265;28;20049;-70
2022/01/24 11:48:36;;;;;;;68.55;41.47;;;6.20;99.90;;;;;;5015448;28;20056;-71
2022/01/24 11:51:07;;;;;;;69.75;41.80;;;6.20;99.90;;;;;;5014277;28;20085;-71
2022/01/24 11:53:37;;;;;;;74.20;41.95;;;6.20;99.90;;;;;;5015105;28;20120;-70
2022/01/24 11:56:28;;;;;;;66.10;40.78;;;6.20;99.90;;;;;;5014747;28;20096;-71
2022/01/24 11:59:23;;;;;;;61.35;37.28;;;6.30;99.90;;;;;;4997870;28;20045;-71
2022/01/24 12:02:05;;;;;;;62.85;37.67;;;6.40;99.90;;;;;;5014966;28;20041;-72
2022/01/24 12:04:55;;;;;;;60.25;36.97;;;6.20;99.90;;;;;;5015238;28;20053;-70
2022/01/24 12:07:24;;;;;;;59.25;37.00;;;6.20;99.90;;;;;;5015163;28;20053;-71
2022/01/24 12:09:52;;;;;;;58.50;35.97;;;6.20;99.90;;;;;;5014891;28;20378;-70
2022/01/24 12:12:48;;;;;;;57.30;35.85;;;6.20;99.90;;;;;;5015284;28;20050;-71
2022/01/24 12:15:50;;;;;;;56.92;36.42;;;6.20;99.90;;;;;;5015032;28;20108;-71
2022/01/24 12:18:29;;;;;;;58.40;36.85;;;6.10;99.90;;;;;;4935050;29;20168;-69
2022/01/24 12:21:06;;;;;;;51.13;32.85;;;6.20;99.90;;;;;;5005014;28;20434;-71
2022/01/24 12:23:41;;;;;;;49.53;32.30;;;6.20;99.90;;;;;;5014255;28;20192;-72
2022/01/24 12:26:22;;;;;;;50.75;33.38;;;6.20;99.90;;;;;;4996646;28;20449;-71
2022/01/24 12:28:52;;;;;;;51.78;33.97;;;6.10;99.90;;;;;;5014505;28;20057;-74
2022/01/24 12:31:27;;;;;;;48.33;32.63;;;6.10;99.90;;;;;;5013941;28;20484;-71
2022/01/24 12:34:08;;;;;;;49.97;32.97;;;6.10;99.90;;;;;;5014789;28;20478;-70
2022/01/24 12:36:37;;;;;;;53.78;34.90;;;6.10;99.90;;;;;;5014366;28;20502;-72
2022/01/24 12:39:19;;;;;;;48.22;32.20;;;6.10;99.90;;;;;;5014742;28;20038;-71
2022/01/24 12:42:01;;;;;;;44.35;29.95;;;6.10;99.90;;;;;;5014795;28;20042;-71
2022/01/24 12:47:19;;;;;;;43.17;30.42;;;6.10;99.90;;;;;;5014703;28;20062;-72
2022/01/24 12:49:46;;;;;;;44.80;30.20;;;6.10;99.90;;;;;;5014599;28;20038;-71
2022/01/24 12:52:20;;;;;;;48.70;31.30;;;6.10;99.90;;;;;;5014367;28;20439;-71
2022/01/24 12:54:51;;;;;;;47.63;32.17;;;6.10;99.90;;;;;;5014594;28;20042;-72
2022/01/24 12:57:22;;;;;;;45.38;30.05;;;6.20;99.90;;;;;;5014792;28;20512;-73
2022/01/24 13:00:06;;;;;;;44.25;31.15;;;6.10;99.90;;;;;;5014516;28;20042;-72
2022/01/24 13:02:34;;;;;;;44.53;31.67;;;6.10;99.90;;;;;;5014410;28;20392;-71
2022/01/24 13:05:01;;;;;;;44.72;31.92;;;6.10;99.90;;;;;;5014389;28;20073;-70
2022/01/24 13:07:26;;;;;;;48.90;31.35;;;6.10;99.90;;;;;;5015046;28;20382;-72
2022/01/24 13:10:08;;;;;;;50.00;32.60;;;6.10;99.90;;;;;;4967543;28;20054;-70
2022/01/24 13:12:35;;;;;;;50.90;34.42;;;6.10;99.90;;;;;;5017974;28;20069;-71
2022/01/24 13:15:04;;;;;;;52.35;33.67;;;6.10;99.90;;;;;;5017701;28;20370;-73
2022/01/24 13:20:31;;;;;;;48.45;30.92;;;6.10;99.90;;;;;;5017329;28;20061;-70
2022/01/24 13:23:00;;;;;;;42.05;29.25;;;6.10;99.90;;;;;;5017578;28;20061;-70
2022/01/24 13:25:33;;;;;;;50.00;32.78;;;6.10;99.90;;;;;;5018042;28;20065;-71
2022/01/24 13:28:15;;;;;;;52.83;32.80;;;6.10;99.90;;;;;;5018035;28;20474;-72
2022/01/24 13:30:50;;;;;;;46.45;31.42;;;6.10;99.90;;;;;;5017666;28;20050;-70
2022/01/24 13:33:23;;;;;;;45.67;31.02;;;6.10;99.90;;;;;;5017498;28;20061;-70
2022/01/24 13:35:51;;;;;;;48.75;31.63;;;6.00;99.90;;;;;;5017226;28;20057;-71
2022/01/24 13:38:26;;;;;;;47.20;30.98;;;6.00;99.90;;;;;;5017171;28;20134;-70
2022/01/24 13:41:01;;;;;;;45.75;30.90;;;6.00;99.90;;;;;;5017543;28;20053;-71
2022/01/24 13:43:41;;;;;;;42.85;29.25;;;6.00;99.90;;;;;;5017318;28;20085;-71
2022/01/24 13:46:18;;;;;;;42.17;28.20;;;6.00;99.90;;;;;;5017532;28;20423;-71
2022/01/24 13:49:05;;;;;;;44.20;28.83;;;6.00;99.90;;;;;;5017302;28;20038;-71
2022/01/24 13:51:46;;;;;;;49.65;31.38;;;6.00;99.90;;;;;;5017151;28;20413;-70
2022/01/24 13:54:17;;;;;;;45.00;30.73;;;6.00;99.90;;;;;;5017406;28;20193;-72
2022/01/24 13:56:53;;;;;;;43.13;29.90;;;6.00;99.90;;;;;;5017321;28;20133;-70
2022/01/24 13:59:21;;;;;;;45.78;30.33;;;6.00;99.90;;;;;;5017269;28;20058;-72
2022/01/24 14:01:59;;;;;;;44.97;31.00;;;5.90;99.90;;;;;;4999802;28;20057;-72
2022/01/24 14:04:48;;;;;;;47.90;30.17;;;5.90;99.90;;;;;;5016626;28;20074;-70
2022/01/24 14:07:14;;;;;;;45.80;30.23;;;6.00;99.90;;;;;;5016870;28;20140;-72
2022/01/24 14:09:52;;;;;;;46.20;30.08;;;5.90;99.90;;;;;;5016898;28;20073;-71
2022/01/24 14:12:39;;;;;;;41.92;29.40;;;5.90;99.90;;;;;;5016356;28;20057;-70
2022/01/24 14:15:13;;;;;;;45.40;30.00;;;5.90;99.90;;;;;;4999972;28;20053;-73
2022/01/24 14:17:54;;;;;;;47.25;30.55;;;5.90;99.90;;;;;;5016589;28;20061;-73
2022/01/24 14:20:22;;;;;;;49.47;31.40;;;5.90;99.90;;;;;;4999607;28;20136;-72
2022/01/24 14:22:49;;;;;;;49.05;32.63;;;5.80;99.90;;;;;;5016912;28;20053;-72
2022/01/24 14:25:31;;;;;;;47.15;30.80;;;5.80;99.90;;;;;;4982240;28;20137;-71
2022/01/24 14:27:59;;;;;;;45.67;32.20;;;5.80;99.90;;;;;;5016862;28;20364;-70
2022/01/24 14:30:25;;;;;;;48.42;32.15;;;5.80;99.90;;;;;;4999250;28;20498;-71
2022/01/24 14:33:01;;;;;;;47.50;31.50;;;5.80;99.90;;;;;;4999704;28;20053;-72
2022/01/24 14:35:30;;;;;;;47.45;31.80;;;5.70;99.90;;;;;;5016634;28;20101;-70
2022/01/24 14:37:56;;;;;;;50.88;33.25;;;5.70;99.90;;;;;;4999401;28;20052;-72
2022/01/24 14:40:33;;;;;;;48.60;32.88;;;5.70;99.90;;;;;;5016516;28;20390;-72
2022/01/24 14:44:53;;;;;;;48.65;32.53;;;5.70;99.90;;;;;;5015814;28;20120;-71
2022/01/24 14:45:44;;;;;;;50.53;34.33;;;5.70;99.90;;;;;;5015648;28;20105;-70
2022/01/24 14:48:10;;;;;;;49.50;34.42;;;5.70;99.90;;;;;;5016283;28;20046;-72